POGODA: Poland

Lotnisko: Wroclaw Ii

METAR KOD: EPWR


METAR: EPWR 300030Z 14004KT CAVOK 21/18 Q1007


BLOK
Pogoda METAR
300030Z
Dzien: 30, Godzina: 00:30 UTC.
14004KT
Wiatr z kierunku 140, o predkosci 7 km/h
CAVOK
Widzialnosc pow. 10 km, brak chmur pon. 1500 m., brak CB, brak opadow, burz i innych
21/18
Temperatura: powietrze 21°C, punkt rosy 18°C . Wilgotnosc wzgledna 86 %
Q1007
Cisnienie: 1007 hPa

Pogoda na innym lotnisku

Pogoda Gdansk-Rebiechowo WEATHER Poland  
Pogoda Katowice WEATHER Poland  
Pogoda Krakow WEATHER Poland  
Pogoda Poznan WEATHER Poland  
Pogoda Rzeszow-Jasionka WEATHER Poland  
Pogoda Szczecin WEATHER Poland  
Pogoda Warszawa-Okecie WEATHER Poland  
Pogoda Wroclaw Ii WEATHER Poland  

Pogoda w inny kraju

Strona startowa

(C) by GREGOR 2007
Ogłoszenia Towarzyskie